createdAt,value
2018-11-01T00:01:39.985Z,7.00
2018-11-01T00:04:08.232Z,6.40
2018-11-01T00:06:36.457Z,5.63
2018-11-01T00:09:07.049Z,6.00
2018-11-01T00:11:35.290Z,6.43
2018-11-01T00:14:04.321Z,6.33
2018-11-01T00:16:32.550Z,5.83
2018-11-01T00:19:00.773Z,5.70
2018-11-01T00:21:29.037Z,5.50
2018-11-01T00:23:57.262Z,5.23
2018-11-01T00:26:25.493Z,5.77
2018-11-01T00:28:53.721Z,6.43
2018-11-01T00:31:21.961Z,6.30
2018-11-01T00:33:50.189Z,5.30
2018-11-01T00:36:18.410Z,5.40
2018-11-01T00:38:46.636Z,6.33
2018-11-01T00:41:14.854Z,5.63
2018-11-01T00:43:43.098Z,5.80
2018-11-01T00:46:11.317Z,5.60
2018-11-01T00:48:39.557Z,5.30
2018-11-01T00:51:07.792Z,5.17
2018-11-01T00:53:36.021Z,5.30
2018-11-01T00:56:04.299Z,6.50
2018-11-01T00:58:32.529Z,6.50
2018-11-01T01:01:00.744Z,6.07
2018-11-01T01:03:28.974Z,5.67
2018-11-01T01:05:57.195Z,4.90
2018-11-01T01:08:25.437Z,5.50
2018-11-01T01:10:53.657Z,5.47
2018-11-01T01:13:21.886Z,5.20
2018-11-01T01:15:50.105Z,5.53
2018-11-01T01:18:18.340Z,4.87
2018-11-01T01:20:46.562Z,4.90
2018-11-01T01:23:14.898Z,4.47
2018-11-01T01:25:43.122Z,5.53
2018-11-01T01:28:11.366Z,4.90
2018-11-01T01:30:39.601Z,4.97
2018-11-01T01:33:07.853Z,5.00
2018-11-01T01:35:36.074Z,5.20
2018-11-01T01:38:04.315Z,4.40
2018-11-01T01:40:32.532Z,5.57
2018-11-01T01:43:00.762Z,4.60
2018-11-01T01:45:28.982Z,4.50
2018-11-01T01:47:57.213Z,5.00
2018-11-01T01:50:25.465Z,5.03
2018-11-01T01:52:53.713Z,4.63
2018-11-01T01:55:21.937Z,5.03
2018-11-01T01:57:50.196Z,4.80
2018-11-01T02:00:19.634Z,4.50
2018-11-01T02:02:50.189Z,5.10
2018-11-01T02:05:18.405Z,4.67
2018-11-01T02:07:46.637Z,4.67
2018-11-01T02:10:15.905Z,4.77
2018-11-01T02:12:44.202Z,4.70
2018-11-01T02:15:14.834Z,5.80
2018-11-01T02:17:43.414Z,5.57
2018-11-01T02:20:13.210Z,4.50
2018-11-01T02:22:42.227Z,4.70
2018-11-01T02:25:10.556Z,4.97
2018-11-01T02:27:44.239Z,4.30
2018-11-01T02:30:13.905Z,4.60
2018-11-01T02:32:42.805Z,4.13
2018-11-01T02:35:12.711Z,3.90
2018-11-01T02:37:41.106Z,5.37
2018-11-01T02:40:10.072Z,4.50
2018-11-01T02:42:38.466Z,4.97
2018-11-01T02:45:07.527Z,4.50
2018-11-01T02:47:35.829Z,4.40
2018-11-01T02:50:04.310Z,4.37
2018-11-01T02:52:32.803Z,4.87
2018-11-01T02:55:01.025Z,4.27
2018-11-01T02:57:29.262Z,4.63
2018-11-01T02:59:57.513Z,4.83
2018-11-01T03:02:25.758Z,4.60
2018-11-01T03:04:53.972Z,5.50
2018-11-01T03:07:22.206Z,4.80
2018-11-01T03:09:50.448Z,4.00
2018-11-01T03:12:18.742Z,4.60
2018-11-01T03:14:46.977Z,5.10
2018-11-01T03:17:15.240Z,5.70
2018-11-01T03:19:43.446Z,4.83
2018-11-01T03:22:11.666Z,4.70
2018-11-01T03:24:39.892Z,4.67
2018-11-01T03:27:08.109Z,4.60
2018-11-01T03:29:36.358Z,4.63
2018-11-01T03:32:04.981Z,5.07
2018-11-01T03:34:33.204Z,4.80
2018-11-01T03:37:01.430Z,3.60
2018-11-01T03:39:29.661Z,5.53
2018-11-01T03:41:57.884Z,4.67
2018-11-01T03:44:26.118Z,5.07
2018-11-01T03:46:54.345Z,4.00
2018-11-01T03:49:22.575Z,4.33
2018-11-01T03:51:50.850Z,4.60
2018-11-01T03:54:19.062Z,4.63
2018-11-01T03:56:47.293Z,4.70
2018-11-01T03:59:15.527Z,3.90
2018-11-01T04:01:43.918Z,3.87
2018-11-01T04:04:12.167Z,3.70
2018-11-01T04:06:40.385Z,3.80
2018-11-01T04:09:10.901Z,4.43
2018-11-01T04:11:39.490Z,4.33
2018-11-01T04:14:07.796Z,4.43
2018-11-01T04:16:36.291Z,3.97
2018-11-01T04:19:04.834Z,4.53
2018-11-01T04:21:33.087Z,4.47
2018-11-01T04:24:01.316Z,5.03
2018-11-01T04:26:29.530Z,3.80
2018-11-01T04:28:58.112Z,4.00
2018-11-01T04:31:26.320Z,3.97
2018-11-01T04:33:54.553Z,4.37
2018-11-01T04:36:22.789Z,5.00
2018-11-01T04:38:50.957Z,4.43
2018-11-01T04:41:19.129Z,4.40
2018-11-01T04:43:47.355Z,4.00
2018-11-01T04:46:15.566Z,4.70
2018-11-01T04:48:43.729Z,4.33
2018-11-01T04:51:11.933Z,4.60
2018-11-01T04:53:40.113Z,4.73
2018-11-01T04:56:08.290Z,4.57
2018-11-01T04:58:36.706Z,4.80
2018-11-01T05:01:04.893Z,4.50
2018-11-01T05:03:33.144Z,4.80
2018-11-01T05:06:01.294Z,4.40
2018-11-01T05:08:29.486Z,4.70
2018-11-01T05:10:57.657Z,5.07
2018-11-01T05:13:25.894Z,5.10
2018-11-01T05:15:54.070Z,4.50
2018-11-01T05:18:22.260Z,5.00
2018-11-01T05:20:50.435Z,4.40
2018-11-01T05:23:18.614Z,4.73
2018-11-01T05:25:46.801Z,5.50
2018-11-01T05:28:14.983Z,4.80
2018-11-01T05:30:43.157Z,5.33
2018-11-01T05:33:11.346Z,5.77
2018-11-01T05:35:39.534Z,5.23
2018-11-01T05:38:07.714Z,5.10
2018-11-01T05:40:35.903Z,6.07
2018-11-01T05:43:04.081Z,6.47
2018-11-01T05:45:32.261Z,6.10
2018-11-01T05:48:00.444Z,5.73
2018-11-01T05:50:28.615Z,4.80
2018-11-01T05:52:56.799Z,5.00
2018-11-01T05:55:24.984Z,5.10
2018-11-01T05:57:53.157Z,4.80
2018-11-01T06:00:21.338Z,5.13
2018-11-01T06:02:50.060Z,5.63
2018-11-01T06:05:18.243Z,5.90
2018-11-01T06:07:55.583Z,5.50
2018-11-01T06:10:23.764Z,6.30
2018-11-01T06:12:51.938Z,6.30
2018-11-01T06:15:20.114Z,5.50
2018-11-01T06:17:48.296Z,5.43
2018-11-01T06:20:16.493Z,5.20
2018-11-01T06:22:44.665Z,5.50
2018-11-01T06:25:12.853Z,4.80
2018-11-01T06:27:41.055Z,6.07
2018-11-01T06:30:12.724Z,5.17
2018-11-01T06:32:40.842Z,5.37
2018-11-01T06:35:12.918Z,5.80
2018-11-01T06:37:41.193Z,8.00
2018-11-01T06:40:09.390Z,16.33
2018-11-01T06:42:37.605Z,34.20
2018-11-01T06:45:06.418Z,24.50
2018-11-01T06:47:34.640Z,15.50
2018-11-01T06:50:02.831Z,8.53
2018-11-01T06:52:31.097Z,8.40
2018-11-01T06:54:59.225Z,8.10
2018-11-01T06:57:27.414Z,7.70
2018-11-01T06:59:55.611Z,7.10
2018-11-01T07:02:23.800Z,5.60
2018-11-01T07:04:52.217Z,6.47
2018-11-01T07:07:20.405Z,7.10
2018-11-01T07:09:48.597Z,7.30
2018-11-01T07:12:16.782Z,6.73
2018-11-01T07:14:44.961Z,5.93
2018-11-01T07:17:13.177Z,5.97
2018-11-01T07:19:41.333Z,6.60
2018-11-01T07:22:09.540Z,5.87
2018-11-01T07:24:37.731Z,6.00
2018-11-01T07:27:05.925Z,18.80
2018-11-01T07:29:34.196Z,6.77
2018-11-01T07:32:02.367Z,6.70
2018-11-01T07:34:30.734Z,5.30
2018-11-01T07:36:58.931Z,6.90
2018-11-01T07:39:27.129Z,6.83
2018-11-01T07:41:55.317Z,6.60
2018-11-01T07:44:23.505Z,7.30
2018-11-01T07:46:51.704Z,7.50
2018-11-01T07:49:19.931Z,8.30
2018-11-01T07:51:48.208Z,8.20
2018-11-01T07:54:16.402Z,8.30
2018-11-01T07:56:44.606Z,8.47
2018-11-01T07:59:12.786Z,7.77
2018-11-01T08:01:40.986Z,9.63
2018-11-01T08:04:09.185Z,8.07
2018-11-01T08:06:37.378Z,8.80
2018-11-01T08:09:08.085Z,7.93
2018-11-01T08:11:36.385Z,8.47
2018-11-01T08:14:04.858Z,8.33
2018-11-01T08:16:33.058Z,8.10
2018-11-01T08:19:01.432Z,8.40
2018-11-01T08:21:29.643Z,8.00
2018-11-01T08:23:58.089Z,8.03
2018-11-01T08:26:26.304Z,8.23
2018-11-01T08:28:54.625Z,7.07
2018-11-01T08:31:23.125Z,8.10
2018-11-01T08:33:51.318Z,7.77
2018-11-01T08:36:19.530Z,8.00
2018-11-01T08:38:47.714Z,8.83
2018-11-01T08:41:15.905Z,7.43
2018-11-01T08:43:44.145Z,9.00
2018-11-01T08:46:12.329Z,8.43
2018-11-01T08:48:40.525Z,8.83
2018-11-01T08:51:08.729Z,9.10
2018-11-01T08:53:36.913Z,8.80
2018-11-01T08:56:05.117Z,9.07
2018-11-01T08:58:33.309Z,9.07
2018-11-01T09:01:01.554Z,8.43
2018-11-01T09:03:29.757Z,8.00
2018-11-01T09:05:57.966Z,7.83
2018-11-01T09:08:26.163Z,8.17
2018-11-01T09:10:54.357Z,9.17
2018-11-01T09:13:22.666Z,8.90
2018-11-01T09:15:50.783Z,8.10
2018-11-01T09:18:18.974Z,7.47
2018-11-01T09:20:47.243Z,7.60
2018-11-01T09:23:15.459Z,8.67
2018-11-01T09:25:43.749Z,7.90
2018-11-01T09:28:11.974Z,8.23
2018-11-01T09:30:40.165Z,9.03
2018-11-01T09:33:08.348Z,7.90
2018-11-01T09:35:36.608Z,7.87
2018-11-01T09:38:04.799Z,8.97
2018-11-01T09:40:32.995Z,8.57
2018-11-01T09:43:01.178Z,7.00
2018-11-01T09:45:29.377Z,7.10
2018-11-01T09:47:57.554Z,6.10
2018-11-01T09:50:25.742Z,6.33
2018-11-01T09:52:53.924Z,5.83
2018-11-01T09:55:22.138Z,6.17
2018-11-01T09:57:50.321Z,6.57
2018-11-01T10:00:18.511Z,6.43
2018-11-01T10:02:46.690Z,6.10
2018-11-01T10:05:14.925Z,5.27
2018-11-01T10:07:43.058Z,5.50
2018-11-01T10:10:12.149Z,6.43
2018-11-01T10:12:40.635Z,6.07
2018-11-01T10:15:09.643Z,6.30
2018-11-01T10:17:38.008Z,6.07
2018-11-01T10:20:08.085Z,7.20
2018-11-01T10:22:36.333Z,6.50
2018-11-01T10:25:04.842Z,7.03
2018-11-01T10:27:33.097Z,6.30
2018-11-01T10:30:01.666Z,7.50
2018-11-01T10:32:29.896Z,7.07
2018-11-01T10:34:58.078Z,6.60
2018-11-01T10:37:26.275Z,7.50
2018-11-01T10:39:54.456Z,7.23
2018-11-01T10:42:22.642Z,6.67
2018-11-01T10:44:50.825Z,7.47
2018-11-01T10:47:19.023Z,7.50
2018-11-01T10:49:47.261Z,7.17
2018-11-01T10:52:15.467Z,6.10
2018-11-01T10:54:43.649Z,6.33
2018-11-01T10:57:11.834Z,6.43
2018-11-01T10:59:40.022Z,7.20
2018-11-01T11:02:13.661Z,7.33
2018-11-01T11:04:41.850Z,6.80
2018-11-01T11:07:10.066Z,7.00
2018-11-01T11:09:38.253Z,6.50
2018-11-01T11:12:06.849Z,6.87
2018-11-01T11:14:35.163Z,6.50
2018-11-01T11:17:03.337Z,7.00
2018-11-01T11:19:31.519Z,6.90
2018-11-01T11:21:59.714Z,6.53
2018-11-01T11:24:27.910Z,7.37
2018-11-01T11:26:56.110Z,7.73
2018-11-01T11:29:24.294Z,6.27
2018-11-01T11:31:52.485Z,6.50
2018-11-01T11:34:20.674Z,8.33
2018-11-01T11:36:48.879Z,6.50
2018-11-01T11:39:17.147Z,6.30
2018-11-01T11:41:45.307Z,6.70
2018-11-01T11:44:13.494Z,6.27
2018-11-01T11:46:41.694Z,6.10
2018-11-01T11:49:09.882Z,6.27
2018-11-01T11:51:38.257Z,6.47
2018-11-01T11:54:06.715Z,5.60
2018-11-01T11:56:34.901Z,6.40
2018-11-01T11:59:03.282Z,4.63
2018-11-01T12:01:31.474Z,3.17
2018-11-01T12:03:59.670Z,2.90
2018-11-01T12:06:27.867Z,3.33
2018-11-01T12:08:56.054Z,3.30
2018-11-01T12:11:24.457Z,2.93
2018-11-01T12:13:52.854Z,2.53
2018-11-01T12:16:21.026Z,2.40
2018-11-01T12:18:49.206Z,1.73
2018-11-01T12:21:17.464Z,1.70
2018-11-01T12:23:45.647Z,1.90
2018-11-01T12:26:14.284Z,1.70
2018-11-01T12:28:42.700Z,1.70
2018-11-01T12:31:10.886Z,1.73
2018-11-01T12:33:39.066Z,1.70
2018-11-01T12:36:07.313Z,1.80
2018-11-01T12:38:35.452Z,1.80
2018-11-01T12:41:03.630Z,1.77
2018-11-01T12:43:31.829Z,1.60
2018-11-01T12:46:00.029Z,1.60
2018-11-01T12:48:28.221Z,1.93
2018-11-01T12:50:56.416Z,2.37
2018-11-01T12:53:24.612Z,1.67
2018-11-01T12:55:52.815Z,1.57
2018-11-01T12:58:21.025Z,1.90
2018-11-01T13:00:49.209Z,1.60
2018-11-01T13:03:17.411Z,1.97
2018-11-01T13:05:45.603Z,1.67
2018-11-01T13:08:13.815Z,2.90
2018-11-01T13:10:42.068Z,1.40
2018-11-01T13:13:10.267Z,1.83
2018-11-01T13:15:38.445Z,1.60
2018-11-01T13:18:06.722Z,1.40
2018-11-01T13:20:34.886Z,1.47
2018-11-01T13:23:03.083Z,1.40
2018-11-01T13:25:31.264Z,1.80
2018-11-01T13:27:59.470Z,1.47
2018-11-01T13:30:27.714Z,1.40
2018-11-01T13:32:55.898Z,1.27
2018-11-01T13:35:24.102Z,1.33
2018-11-01T13:37:52.266Z,1.20
2018-11-01T13:40:20.813Z,1.30
2018-11-01T13:42:48.637Z,1.30
2018-11-01T13:45:16.832Z,1.33
2018-11-01T13:47:45.065Z,1.30
2018-11-01T13:50:13.469Z,1.13
2018-11-01T13:52:41.669Z,1.57
2018-11-01T13:55:11.254Z,1.87
2018-11-01T13:57:39.486Z,1.13
2018-11-01T14:00:08.486Z,1.30
2018-11-01T14:02:38.034Z,1.30
2018-11-01T14:05:08.146Z,1.40
2018-11-01T14:07:36.361Z,1.40
2018-11-01T14:10:05.602Z,1.40
2018-11-01T14:12:33.783Z,1.10
2018-11-01T14:15:02.311Z,1.60
2018-11-01T14:17:30.156Z,1.27
2018-11-01T14:19:58.342Z,1.10
2018-11-01T14:22:26.529Z,1.10
2018-11-01T14:24:54.713Z,1.50
2018-11-01T14:27:22.906Z,1.20
2018-11-01T14:29:51.087Z,1.33
2018-11-01T14:32:19.287Z,1.30
2018-11-01T14:34:47.483Z,1.30
2018-11-01T14:37:15.720Z,1.20
2018-11-01T14:39:43.878Z,1.53
2018-11-01T14:42:13.437Z,1.10
2018-11-01T14:44:41.799Z,1.50
2018-11-01T14:47:09.810Z,1.37
2018-11-01T14:49:38.014Z,1.30
2018-11-01T14:52:06.776Z,1.33
2018-11-01T14:54:34.867Z,1.33
2018-11-01T14:57:04.072Z,1.13
2018-11-01T14:59:33.343Z,1.20
2018-11-01T15:01:59.666Z,1.50
2018-11-01T15:04:28.040Z,1.30
2018-11-01T15:06:56.250Z,1.10
2018-11-01T15:09:24.434Z,1.30
2018-11-01T15:11:52.630Z,1.20
2018-11-01T15:14:20.813Z,1.20
2018-11-01T15:16:48.993Z,1.30
2018-11-01T15:19:17.227Z,1.20
2018-11-01T15:21:45.382Z,1.20
2018-11-01T15:24:13.575Z,1.40
2018-11-01T15:26:41.758Z,2.10
2018-11-01T15:29:11.076Z,2.37
2018-11-01T15:31:39.302Z,2.50
2018-11-01T15:34:08.191Z,2.57
2018-11-01T15:36:36.525Z,2.60
2018-11-01T15:39:07.649Z,1.80
2018-11-01T15:41:36.054Z,1.83
2018-11-01T15:44:04.346Z,3.70
2018-11-01T15:46:32.554Z,4.10
2018-11-01T15:49:00.779Z,3.80
2018-11-01T15:51:28.985Z,3.90
2018-11-01T15:53:57.204Z,3.73
2018-11-01T15:56:25.525Z,3.77
2018-11-01T15:58:53.628Z,3.63
2018-11-01T16:01:21.853Z,3.90
2018-11-01T16:03:50.143Z,3.27
2018-11-01T16:06:18.340Z,3.50
2018-11-01T16:08:46.568Z,3.87
2018-11-01T16:11:14.753Z,3.00
2018-11-01T16:13:42.940Z,2.70
2018-11-01T16:16:11.128Z,2.57
2018-11-01T16:18:39.333Z,2.60
2018-11-01T16:21:07.516Z,2.80
2018-11-01T16:23:35.766Z,3.20
2018-11-01T16:26:03.985Z,3.13
2018-11-01T16:28:32.186Z,2.80
2018-11-01T16:31:00.507Z,3.03
2018-11-01T16:33:28.718Z,2.83
2018-11-01T16:35:56.914Z,3.17
2018-11-01T16:38:25.174Z,3.50
2018-11-01T16:40:53.365Z,2.93
2018-11-01T16:43:21.577Z,3.53
2018-11-01T16:45:49.766Z,4.53
2018-11-01T16:48:17.991Z,4.40
2018-11-01T16:50:46.254Z,3.97
2018-11-01T16:53:14.455Z,4.60
2018-11-01T16:55:42.645Z,4.57
2018-11-01T16:58:10.878Z,4.43
2018-11-01T17:00:39.257Z,5.57
2018-11-01T17:03:07.313Z,3.30
2018-11-01T17:05:35.562Z,3.20
2018-11-01T17:08:03.786Z,2.93
2018-11-01T17:10:32.001Z,2.33
2018-11-01T17:13:00.205Z,2.70
2018-11-01T17:15:28.415Z,2.07
2018-11-01T17:17:56.605Z,2.20
2018-11-01T17:20:24.808Z,2.10
2018-11-01T17:22:52.998Z,2.63
2018-11-01T17:25:21.190Z,2.23
2018-11-01T17:27:49.377Z,2.00
2018-11-01T17:30:17.583Z,1.70
2018-11-01T17:32:50.137Z,2.40
2018-11-01T17:35:18.504Z,2.03
2018-11-01T17:37:46.689Z,2.60
2018-11-01T17:40:14.942Z,2.50
2018-11-01T17:42:43.974Z,2.40
2018-11-01T17:45:12.201Z,2.20
2018-11-01T17:47:40.730Z,2.67
2018-11-01T17:50:11.167Z,2.97
2018-11-01T17:52:39.454Z,2.70
2018-11-01T17:55:07.662Z,3.13
2018-11-01T17:57:35.846Z,2.60
2018-11-01T18:00:05.169Z,2.87
2018-11-01T18:02:33.426Z,2.90
2018-11-01T18:05:01.600Z,2.97
2018-11-01T18:07:29.773Z,2.57
2018-11-01T18:09:57.974Z,1.90
2018-11-01T18:12:26.238Z,3.03
2018-11-01T18:14:54.452Z,3.67
2018-11-01T18:17:22.650Z,3.00
2018-11-01T18:19:50.833Z,2.43
2018-11-01T18:22:19.029Z,1.97
2018-11-01T18:24:47.226Z,2.30
2018-11-01T18:27:15.411Z,3.07
2018-11-01T18:29:44.103Z,4.10
2018-11-01T18:32:12.364Z,3.97
2018-11-01T18:34:40.556Z,4.20
2018-11-01T18:37:08.742Z,4.40
2018-11-01T18:39:37.082Z,2.77
2018-11-01T18:42:05.435Z,2.50
2018-11-01T18:44:33.654Z,3.10
2018-11-01T18:47:01.895Z,4.00
2018-11-01T18:49:30.098Z,3.70
2018-11-01T18:51:58.295Z,3.80
2018-11-01T18:54:26.539Z,4.17
2018-11-01T18:56:54.730Z,3.23
2018-11-01T18:59:22.918Z,3.30
2018-11-01T19:01:51.290Z,3.93
2018-11-01T19:04:19.501Z,3.50
2018-11-01T19:06:47.712Z,4.87
2018-11-01T19:09:15.898Z,4.17
2018-11-01T19:11:44.125Z,3.87
2018-11-01T19:14:12.387Z,4.20
2018-11-01T19:16:40.533Z,4.40
2018-11-01T19:19:08.733Z,3.23
2018-11-01T19:21:36.940Z,3.67
2018-11-01T19:24:05.316Z,2.90
2018-11-01T19:26:33.538Z,3.00
2018-11-01T19:29:01.719Z,2.77
2018-11-01T19:31:29.901Z,3.23
2018-11-01T19:33:58.103Z,3.67
2018-11-01T19:36:26.286Z,3.97
2018-11-01T19:38:54.474Z,3.63
2018-11-01T19:41:22.678Z,1.93
2018-11-01T19:43:50.862Z,2.60
2018-11-01T19:46:19.142Z,3.40
2018-11-01T19:48:47.330Z,3.50
2018-11-01T19:51:15.574Z,3.30
2018-11-01T19:53:43.809Z,3.73
2018-11-01T19:56:12.005Z,3.57
2018-11-01T19:58:40.223Z,2.87
2018-11-01T20:01:08.390Z,3.00
2018-11-01T20:03:36.739Z,3.60
2018-11-01T20:06:04.938Z,3.63
2018-11-01T20:08:33.278Z,4.47
2018-11-01T20:11:01.358Z,4.70
2018-11-01T20:13:29.536Z,3.30
2018-11-01T20:15:57.726Z,4.10
2018-11-01T20:18:25.947Z,3.80
2018-11-01T20:20:54.133Z,3.30
2018-11-01T20:23:22.327Z,3.53
2018-11-01T20:25:50.635Z,4.03
2018-11-01T20:28:18.689Z,4.17
2018-11-01T20:30:46.884Z,3.63
2018-11-01T20:33:15.067Z,3.27
2018-11-01T20:35:43.302Z,2.87
2018-11-01T20:38:11.601Z,2.40
2018-11-01T20:40:39.672Z,3.00
2018-11-01T20:43:07.857Z,2.70
2018-11-01T20:45:36.873Z,2.40
2018-11-01T20:48:05.301Z,2.63
2018-11-01T20:50:33.497Z,2.23
2018-11-01T20:53:01.697Z,2.90
2018-11-01T20:55:29.884Z,2.70
2018-11-01T20:57:58.093Z,2.83
2018-11-01T21:00:26.262Z,3.00
2018-11-01T21:02:54.434Z,3.13
2018-11-01T21:05:22.630Z,2.67
2018-11-01T21:07:50.814Z,3.03
2018-11-01T21:10:18.992Z,2.37
2018-11-01T21:12:47.204Z,2.67
2018-11-01T21:15:15.548Z,2.90
2018-11-01T21:17:43.745Z,2.63
2018-11-01T21:20:11.941Z,2.70
2018-11-01T21:22:40.484Z,2.20
2018-11-01T21:25:09.678Z,2.40
2018-11-01T21:27:37.950Z,2.20
2018-11-01T21:30:06.590Z,2.63
2018-11-01T21:32:34.810Z,2.33
2018-11-01T21:35:03.369Z,2.50
2018-11-01T21:37:31.623Z,1.90
2018-11-01T21:39:59.866Z,2.13
2018-11-01T21:42:28.050Z,2.43
2018-11-01T21:44:56.228Z,2.87
2018-11-01T21:47:24.429Z,2.70
2018-11-01T21:49:52.620Z,1.90
2018-11-01T21:52:20.874Z,2.53
2018-11-01T21:54:49.168Z,2.37
2018-11-01T21:57:17.385Z,2.30
2018-11-01T21:59:45.573Z,2.00
2018-11-01T22:02:13.842Z,2.00
2018-11-01T22:04:42.025Z,2.10
2018-11-01T22:07:10.206Z,2.03
2018-11-01T22:09:38.437Z,1.80
2018-11-01T22:12:06.618Z,1.80
2018-11-01T22:14:34.841Z,1.63
2018-11-01T22:17:03.046Z,2.03
2018-11-01T22:19:31.223Z,1.73
2018-11-01T22:21:59.417Z,1.93
2018-11-01T22:24:27.583Z,1.80
2018-11-01T22:26:55.790Z,2.13
2018-11-01T22:29:23.966Z,1.93
2018-11-01T22:31:52.250Z,2.40
2018-11-01T22:34:20.425Z,1.90
2018-11-01T22:36:48.625Z,2.23
2018-11-01T22:39:16.846Z,2.37
2018-11-01T22:41:45.029Z,1.93
2018-11-01T22:44:13.229Z,1.80
2018-11-01T22:46:41.504Z,2.23
2018-11-01T22:49:09.699Z,2.00
2018-11-01T22:51:37.947Z,1.97
2018-11-01T22:54:06.155Z,1.80
2018-11-01T22:56:34.364Z,2.17
2018-11-01T22:59:02.555Z,2.00
2018-11-01T23:01:30.752Z,1.70
2018-11-01T23:03:58.947Z,2.17
2018-11-01T23:06:27.145Z,1.80
2018-11-01T23:08:55.322Z,1.97
2018-11-01T23:11:23.500Z,2.20
2018-11-01T23:13:51.682Z,1.80
2018-11-01T23:16:19.894Z,1.70
2018-11-01T23:18:48.102Z,2.07
2018-11-01T23:21:16.289Z,1.67
2018-11-01T23:23:44.482Z,1.67
2018-11-01T23:26:12.679Z,1.37
2018-11-01T23:28:40.857Z,1.90
2018-11-01T23:31:09.066Z,1.90
2018-11-01T23:33:37.252Z,2.43
2018-11-01T23:36:04.982Z,2.23
2018-11-01T23:38:38.571Z,1.87
2018-11-01T23:41:12.319Z,1.80
2018-11-01T23:43:45.993Z,1.70
2018-11-01T23:46:19.524Z,1.83
2018-11-01T23:48:50.262Z,1.57
2018-11-01T23:51:19.254Z,1.40
2018-11-01T23:53:49.329Z,1.53
2018-11-01T23:56:18.042Z,1.67
2018-11-01T23:58:46.346Z,1.33
